createdAt,value
2022-12-01T00:01:34.487Z,99391.98
2022-12-01T00:04:02.390Z,99388.73
2022-12-01T00:06:30.386Z,99390.13
2022-12-01T00:09:20.016Z,99391.17
2022-12-01T00:11:48.945Z,99390.34
2022-12-01T00:14:17.640Z,99386.88
2022-12-01T00:16:45.855Z,99387.92
2022-12-01T00:19:13.924Z,99386.73
2022-12-01T00:21:41.864Z,99382.23
2022-12-01T00:24:11.625Z,99384.31
2022-12-01T00:26:39.934Z,99385.52
2022-12-01T00:29:08.794Z,99382.94
2022-12-01T00:31:36.756Z,99383.64
2022-12-01T00:34:09.622Z,99386.05
2022-12-01T00:36:39.695Z,99385.54
2022-12-01T00:39:08.728Z,99386.05
2022-12-01T00:41:36.714Z,99387.09
2022-12-01T00:44:05.078Z,99383.46
2022-12-01T00:46:33.438Z,99384.67
2022-12-01T00:49:01.300Z,99381.73
2022-12-01T00:51:29.245Z,99375.85
2022-12-01T00:53:57.878Z,99375.34
2022-12-01T00:56:25.952Z,99373.24
2022-12-01T00:58:53.894Z,99373.08
2022-12-01T01:01:21.996Z,99373.60
2022-12-01T01:03:49.795Z,99376.02
2022-12-01T01:06:17.682Z,99373.61
2022-12-01T01:08:46.487Z,99376.71
2022-12-01T01:11:14.482Z,99369.28
2022-12-01T01:13:42.382Z,99368.58
2022-12-01T01:16:17.689Z,99369.27
2022-12-01T01:18:45.876Z,99368.05
2022-12-01T01:21:18.929Z,99368.73
2022-12-01T01:23:47.387Z,99369.08
2022-12-01T01:26:17.054Z,99366.84
2022-12-01T01:28:46.967Z,99369.27
2022-12-01T01:31:18.458Z,99367.69
2022-12-01T01:33:46.886Z,99368.73
2022-12-01T01:36:16.389Z,99365.45
2022-12-01T01:38:44.845Z,99362.52
2022-12-01T01:41:13.771Z,99354.90
2022-12-01T01:43:52.837Z,99356.65
2022-12-01T01:46:28.212Z,99358.04
2022-12-01T01:49:05.015Z,99360.98
2022-12-01T01:51:38.509Z,99357.68
2022-12-01T01:54:08.525Z,99356.48
2022-12-01T01:56:37.725Z,99348.17
2022-12-01T01:59:06.069Z,99345.23
2022-12-01T02:01:34.216Z,99343.68
2022-12-01T02:04:02.930Z,99341.79
2022-12-01T02:06:31.242Z,99338.15
2022-12-01T02:08:59.238Z,99337.64
2022-12-01T02:11:36.040Z,99338.31
2022-12-01T02:14:27.347Z,99341.77
2022-12-01T02:17:06.969Z,99339.35
2022-12-01T02:20:00.778Z,99342.46
2022-12-01T02:22:40.667Z,99341.61
2022-12-01T02:25:30.880Z,99339.55
2022-12-01T02:28:20.594Z,99332.46
2022-12-01T02:31:02.384Z,99336.77
2022-12-01T02:33:43.712Z,99336.08
2022-12-01T02:36:19.853Z,99331.06
2022-12-01T02:39:04.252Z,99334.36
2022-12-01T02:41:39.456Z,99336.61
2022-12-01T02:44:10.308Z,99339.02
2022-12-01T02:46:49.890Z,99337.81
2022-12-01T02:49:21.381Z,99341.96
2022-12-01T02:51:52.568Z,99339.02
2022-12-01T02:54:22.204Z,99337.11
2022-12-01T02:56:53.810Z,99330.90
2022-12-01T02:59:22.980Z,99326.93
2022-12-01T03:02:05.660Z,99328.14
2022-12-01T03:04:45.332Z,99327.61
2022-12-01T03:07:33.232Z,99323.65
2022-12-01T03:10:10.874Z,99324.86
2022-12-01T03:12:51.195Z,99327.27
2022-12-01T03:15:47.867Z,99323.65
2022-12-01T03:18:32.724Z,99324.50
2022-12-01T03:21:33.884Z,99322.61
2022-12-01T03:24:11.739Z,99318.29
2022-12-01T03:26:42.257Z,99319.16
2022-12-01T03:29:12.986Z,99316.91
2022-12-01T03:31:48.108Z,99316.04
2022-12-01T03:34:44.718Z,99311.73
2022-12-01T03:37:32.386Z,99308.63
2022-12-01T03:40:06.462Z,99304.82
2022-12-01T03:42:44.188Z,99305.52
2022-12-01T03:45:18.076Z,99304.64
2022-12-01T03:47:45.961Z,99305.52
2022-12-01T03:50:14.342Z,99301.02
2022-12-01T03:53:21.072Z,99302.39
2022-12-01T03:55:56.793Z,99307.06
2022-12-01T03:58:34.411Z,99311.73
2022-12-01T04:01:03.196Z,99308.62
2022-12-01T04:03:31.380Z,99302.39
2022-12-01T04:05:59.584Z,99304.13
2022-12-01T04:08:28.221Z,99303.78
2022-12-01T04:10:57.121Z,99307.59
2022-12-01T04:13:25.909Z,99303.09
2022-12-01T04:15:54.439Z,99298.42
2022-12-01T04:18:22.520Z,99300.84
2022-12-01T04:20:50.767Z,99303.95
2022-12-01T04:23:37.532Z,99300.84
2022-12-01T04:26:07.310Z,99297.75
2022-12-01T04:28:37.041Z,99298.25
2022-12-01T04:31:05.301Z,99292.71
2022-12-01T04:33:33.348Z,99287.20
2022-12-01T04:36:01.552Z,99284.94
2022-12-01T04:38:31.008Z,99283.56
2022-12-01T04:40:59.093Z,99287.36
2022-12-01T04:43:27.282Z,99288.06
2022-12-01T04:45:55.197Z,99295.32
2022-12-01T04:48:23.099Z,99293.23
2022-12-01T04:50:51.090Z,99293.08
2022-12-01T04:53:19.009Z,99295.32
2022-12-01T04:55:47.079Z,99298.08
2022-12-01T04:58:15.103Z,99294.27
2022-12-01T05:00:43.092Z,99296.02
2022-12-01T05:03:15.033Z,99294.62
2022-12-01T05:05:43.401Z,99297.39
2022-12-01T05:08:11.465Z,99296.70
2022-12-01T05:10:39.386Z,99299.80
2022-12-01T05:13:07.365Z,99302.23
2022-12-01T05:15:35.319Z,99305.86
2022-12-01T05:18:03.274Z,99310.69
2022-12-01T05:20:50.162Z,99307.23
2022-12-01T05:23:18.185Z,99309.50
2022-12-01T05:25:46.046Z,99309.83
2022-12-01T05:28:15.046Z,99313.63
2022-12-01T05:30:43.662Z,99314.48
2022-12-01T05:33:12.797Z,99316.57
2022-12-01T05:35:40.955Z,99308.95
2022-12-01T05:38:08.937Z,99311.89
2022-12-01T05:40:37.794Z,99312.60
2022-12-01T05:43:06.840Z,99308.95
2022-12-01T05:45:35.660Z,99304.46
2022-12-01T05:48:03.846Z,99302.73
2022-12-01T05:50:32.594Z,99301.54
2022-12-01T05:53:00.492Z,99301.03
2022-12-01T05:55:28.432Z,99302.56
2022-12-01T05:57:56.440Z,99302.40
2022-12-01T06:00:24.389Z,99300.14
2022-12-01T06:02:52.219Z,99302.91
2022-12-01T06:05:21.378Z,99302.23
2022-12-01T06:07:49.757Z,99313.98
2022-12-01T06:10:18.034Z,99312.77
2022-12-01T06:12:45.834Z,99317.95
2022-12-01T06:15:14.898Z,99318.11
2022-12-01T06:17:42.867Z,99320.02
2022-12-01T06:20:11.339Z,99319.15
2022-12-01T06:22:39.350Z,99317.61
2022-12-01T06:25:08.283Z,99323.14
2022-12-01T06:27:36.436Z,99323.66
2022-12-01T06:30:05.611Z,99328.49
2022-12-01T06:32:33.786Z,99327.80
2022-12-01T06:35:02.486Z,99331.42
2022-12-01T06:37:30.392Z,99330.21
2022-12-01T06:39:58.219Z,99328.65
2022-12-01T06:42:28.925Z,99326.24
2022-12-01T06:44:57.078Z,99330.90
2022-12-01T06:47:25.048Z,99328.48
2022-12-01T06:49:53.182Z,99334.70
2022-12-01T06:52:21.044Z,99336.43
2022-12-01T06:54:49.144Z,99340.77
2022-12-01T06:57:17.590Z,99345.77
2022-12-01T06:59:45.777Z,99349.41
2022-12-01T07:02:14.626Z,99348.20
2022-12-01T07:04:43.213Z,99350.10
2022-12-01T07:07:12.318Z,99352.69
2022-12-01T07:09:40.181Z,99351.48
2022-12-01T07:12:08.140Z,99350.09
2022-12-01T07:14:36.213Z,99348.20
2022-12-01T07:17:04.248Z,99347.33
2022-12-01T07:19:32.249Z,99352.52
2022-12-01T07:22:01.269Z,99354.77
2022-12-01T07:24:30.545Z,99344.05
2022-12-01T07:26:58.535Z,99353.72
2022-12-01T07:29:26.674Z,99351.82
2022-12-01T07:32:01.031Z,99353.90
2022-12-01T07:34:29.952Z,99358.05
2022-12-01T07:36:58.598Z,99356.66
2022-12-01T07:39:26.451Z,99357.17
2022-12-01T07:41:54.380Z,99361.66
2022-12-01T07:44:22.310Z,99365.48
2022-12-01T07:46:50.476Z,99360.29
2022-12-01T07:49:18.627Z,99359.09
2022-12-01T07:51:46.626Z,99362.73
2022-12-01T07:54:20.559Z,99361.69
2022-12-01T07:56:48.754Z,99363.08
2022-12-01T07:59:16.906Z,99364.80
2022-12-01T08:01:46.079Z,99362.02
2022-12-01T08:04:14.222Z,99361.66
2022-12-01T08:06:42.378Z,99362.35
2022-12-01T08:09:10.557Z,99362.71
2022-12-01T08:11:38.641Z,99360.29
2022-12-01T08:14:06.702Z,99365.14
2022-12-01T08:16:34.771Z,99364.96
2022-12-01T08:19:03.111Z,99364.27
2022-12-01T08:21:31.175Z,99366.70
2022-12-01T08:23:59.357Z,99364.98
2022-12-01T08:26:27.741Z,99363.24
2022-12-01T08:28:56.524Z,99363.23
2022-12-01T08:31:27.849Z,99365.30
2022-12-01T08:33:56.810Z,99365.13
2022-12-01T08:36:25.827Z,99366.01
2022-12-01T08:38:55.869Z,99367.71
2022-12-01T08:41:24.835Z,99368.23
2022-12-01T08:43:58.278Z,99369.78
2022-12-01T08:46:28.999Z,99373.23
2022-12-01T08:48:58.010Z,99373.06
2022-12-01T08:51:26.829Z,99371.34
2022-12-01T08:53:55.328Z,99374.80
2022-12-01T08:56:25.725Z,99374.13
2022-12-01T08:58:53.994Z,99374.83
2022-12-01T09:01:22.395Z,99375.16
2022-12-01T09:04:05.944Z,99374.30
2022-12-01T09:06:40.256Z,99373.96
2022-12-01T09:09:09.100Z,99376.55
2022-12-01T09:11:37.147Z,99372.23
2022-12-01T09:14:05.273Z,99373.79
2022-12-01T09:16:33.494Z,99370.66
2022-12-01T09:19:02.171Z,99370.83
2022-12-01T09:21:32.531Z,99368.07
2022-12-01T09:24:02.054Z,99363.57
2022-12-01T09:26:31.192Z,99357.70
2022-12-01T09:29:08.276Z,99359.43
2022-12-01T09:31:37.950Z,99355.80
2022-12-01T09:34:13.927Z,99354.41
2022-12-01T09:36:46.793Z,99355.63
2022-12-01T09:39:18.806Z,99352.86
2022-12-01T09:42:12.986Z,99353.20
2022-12-01T09:44:47.823Z,99350.09
2022-12-01T09:47:34.865Z,99344.91
2022-12-01T09:50:06.082Z,99344.73
2022-12-01T09:52:41.253Z,99342.64
2022-12-01T09:55:19.817Z,99335.73
2022-12-01T09:57:50.860Z,99332.10
2022-12-01T10:00:21.538Z,99331.59
2022-12-01T10:03:06.162Z,99330.55
2022-12-01T10:06:18.071Z,99330.05
2022-12-01T10:08:37.533Z,99331.77
2022-12-01T10:11:13.279Z,99334.20
2022-12-01T10:13:43.760Z,99326.77
2022-12-01T10:16:15.691Z,99326.58
2022-12-01T10:18:49.546Z,99327.27
2022-12-01T10:21:50.109Z,99333.67
2022-12-01T10:24:36.444Z,99332.80
2022-12-01T10:27:23.260Z,99328.67
2022-12-01T10:30:02.871Z,99328.48
2022-12-01T10:32:58.371Z,99325.91
2022-12-01T10:35:30.098Z,99324.70
2022-12-01T10:38:04.624Z,99320.89
2022-12-01T10:40:36.813Z,99316.74
2022-12-01T10:43:04.766Z,99322.27
2022-12-01T10:45:35.769Z,99318.83
2022-12-01T10:48:10.797Z,99317.79
2022-12-01T10:50:39.375Z,99315.54
2022-12-01T10:53:07.290Z,99314.84
2022-12-01T10:55:41.946Z,99314.66
2022-12-01T10:58:16.225Z,99307.06
2022-12-01T11:01:01.629Z,99307.75
2022-12-01T11:03:35.794Z,99303.09
2022-12-01T11:06:06.583Z,99300.68
2022-12-01T11:08:45.827Z,99303.26
2022-12-01T11:11:35.495Z,99308.10
2022-12-01T11:14:22.745Z,99305.67
2022-12-01T11:16:54.171Z,99299.97
2022-12-01T11:19:34.067Z,99302.21
2022-12-01T11:22:18.776Z,99301.88
2022-12-01T11:24:53.062Z,99297.55
2022-12-01T11:27:50.591Z,99295.66
2022-12-01T11:30:27.142Z,99293.23
2022-12-01T11:32:58.169Z,99292.72
2022-12-01T11:35:31.278Z,99287.02
2022-12-01T11:38:28.767Z,99281.14
2022-12-01T11:40:54.870Z,99282.52
2022-12-01T11:43:30.777Z,99281.48
2022-12-01T11:46:04.207Z,99280.60
2022-12-01T11:48:34.609Z,99281.63
2022-12-01T11:51:17.971Z,99285.59
2022-12-01T11:53:46.507Z,99288.54
2022-12-01T11:56:17.547Z,99290.45
2022-12-01T11:58:48.201Z,99291.30
2022-12-01T12:01:35.134Z,99284.74
2022-12-01T12:04:12.503Z,99292.20
2022-12-01T12:07:09.792Z,99295.30
2022-12-01T12:09:55.181Z,99296.69
2022-12-01T12:12:55.585Z,99298.95
2022-12-01T12:15:38.861Z,99297.20
2022-12-01T12:18:32.045Z,99298.95
2022-12-01T12:21:00.001Z,99301.36
2022-12-01T12:23:49.140Z,99298.76
2022-12-01T12:26:23.268Z,99300.48
2022-12-01T12:29:03.404Z,99299.63
2022-12-01T12:31:59.698Z,99301.19
2022-12-01T12:34:37.289Z,99304.29
2022-12-01T12:37:29.329Z,99299.10
2022-12-01T12:40:29.324Z,99298.24
2022-12-01T12:43:30.224Z,99298.25
2022-12-01T12:46:01.251Z,99295.48
2022-12-01T12:48:32.728Z,99294.29
2022-12-01T12:51:09.105Z,99294.62
2022-12-01T12:54:08.193Z,99290.30
2022-12-01T12:56:36.751Z,99292.89
2022-12-01T12:59:10.051Z,99292.38
2022-12-01T13:01:47.016Z,99290.82
2022-12-01T13:04:15.041Z,99291.68
2022-12-01T13:06:52.989Z,99290.64
2022-12-01T13:09:28.521Z,99294.97
2022-12-01T13:12:25.777Z,99296.51
2022-12-01T13:15:13.928Z,99288.55
2022-12-01T13:17:47.606Z,99292.87
2022-12-01T13:20:19.413Z,99298.58
2022-12-01T13:22:48.620Z,99301.31
2022-12-01T13:25:25.711Z,99306.52
2022-12-01T13:27:56.126Z,99306.34
2022-12-01T13:30:26.364Z,99308.06
2022-12-01T13:33:06.393Z,99307.38
2022-12-01T13:35:38.685Z,99299.44
2022-12-01T13:38:32.516Z,99297.54
2022-12-01T13:41:18.243Z,99300.30
2022-12-01T13:43:57.872Z,99300.30
2022-12-01T13:46:30.695Z,99302.38
2022-12-01T13:49:00.123Z,99303.59
2022-12-01T13:52:07.701Z,99299.11
2022-12-01T13:54:37.398Z,99302.73
2022-12-01T13:57:11.409Z,99302.39
2022-12-01T13:59:58.554Z,99305.31
2022-12-01T14:02:37.103Z,99301.69
2022-12-01T14:05:23.372Z,99306.02
2022-12-01T14:07:53.697Z,99305.85
2022-12-01T14:10:24.914Z,99305.85
2022-12-01T14:12:56.317Z,99305.52
2022-12-01T14:15:33.479Z,99300.15
2022-12-01T14:18:08.527Z,99301.18
2022-12-01T14:20:45.963Z,99306.02
2022-12-01T14:23:29.339Z,99303.60
2022-12-01T14:26:12.893Z,99301.70
2022-12-01T14:28:56.292Z,99307.41
2022-12-01T14:31:46.861Z,99296.69
2022-12-01T14:34:19.306Z,99301.88
2022-12-01T14:36:54.609Z,99303.42
2022-12-01T14:39:22.601Z,99304.13
2022-12-01T14:41:58.341Z,99303.27
2022-12-01T14:44:39.198Z,99299.63
2022-12-01T14:47:13.802Z,99306.55
2022-12-01T14:49:47.828Z,99307.92
2022-12-01T14:52:29.806Z,99304.48
2022-12-01T14:55:01.708Z,99304.12
2022-12-01T14:57:36.432Z,99304.12
2022-12-01T15:00:12.839Z,99301.70
2022-12-01T15:02:44.277Z,99298.41
2022-12-01T15:05:19.724Z,99300.48
2022-12-01T15:07:50.814Z,99303.95
2022-12-01T15:10:22.410Z,99300.13
2022-12-01T15:12:51.226Z,99302.21
2022-12-01T15:15:24.461Z,99299.27
2022-12-01T15:17:55.814Z,99302.56
2022-12-01T15:20:26.918Z,99303.41
2022-12-01T15:22:55.759Z,99302.21
2022-12-01T15:25:25.497Z,99301.86
2022-12-01T15:28:19.990Z,99303.08
2022-12-01T15:30:54.166Z,99306.19
2022-12-01T15:33:36.826Z,99306.02
2022-12-01T15:36:07.351Z,99304.81
2022-12-01T15:38:38.094Z,99304.81
2022-12-01T15:41:28.943Z,99303.27
2022-12-01T15:44:00.636Z,99312.08
2022-12-01T15:46:31.614Z,99308.78
2022-12-01T15:49:08.583Z,99306.72
2022-12-01T15:51:36.904Z,99306.02
2022-12-01T15:54:05.053Z,99305.84
2022-12-01T15:56:40.668Z,99304.29
2022-12-01T15:59:14.864Z,99301.17
2022-12-01T16:01:44.422Z,99301.20
2022-12-01T16:04:21.601Z,99306.71
2022-12-01T16:07:00.821Z,99307.05
2022-12-01T16:09:31.542Z,99305.85
2022-12-01T16:12:09.626Z,99302.91
2022-12-01T16:15:10.121Z,99305.86
2022-12-01T16:17:55.916Z,99303.77
2022-12-01T16:20:23.867Z,99306.02
2022-12-01T16:22:59.151Z,99302.56
2022-12-01T16:25:35.156Z,99302.55
2022-12-01T16:28:05.147Z,99305.50
2022-12-01T16:30:37.779Z,99299.80
2022-12-01T16:33:15.614Z,99296.86
2022-12-01T16:35:44.613Z,99296.52
2022-12-01T16:38:20.876Z,99297.38
2022-12-01T16:40:51.013Z,99296.88
2022-12-01T16:43:21.549Z,99301.54
2022-12-01T16:45:57.585Z,99305.86
2022-12-01T16:48:25.726Z,99303.95
2022-12-01T16:50:55.480Z,99302.40
2022-12-01T16:53:23.822Z,99302.40
2022-12-01T16:55:55.498Z,99299.29
2022-12-01T16:58:23.788Z,99296.70
2022-12-01T17:00:53.569Z,99296.70
2022-12-01T17:03:25.982Z,99299.64
2022-12-01T17:05:54.762Z,99300.51
2022-12-01T17:08:22.893Z,99300.83
2022-12-01T17:10:52.108Z,99300.84
2022-12-01T17:13:23.551Z,99300.15
2022-12-01T17:15:53.786Z,99300.50
2022-12-01T17:18:23.545Z,99303.95
2022-12-01T17:21:04.960Z,99301.02
2022-12-01T17:23:33.876Z,99301.54
2022-12-01T17:26:03.129Z,99303.44
2022-12-01T17:28:31.091Z,99303.95
2022-12-01T17:33:46.574Z,99298.42
2022-12-01T17:36:14.967Z,99297.91
2022-12-01T17:38:45.929Z,99298.59
2022-12-01T17:41:16.812Z,99297.90
2022-12-01T17:43:44.924Z,99298.76
2022-12-01T17:46:13.765Z,99298.24
2022-12-01T17:48:44.833Z,99297.56
2022-12-01T17:51:13.623Z,99293.41
2022-12-01T17:53:41.756Z,99297.56
2022-12-01T17:56:11.271Z,99296.34
2022-12-01T17:58:40.551Z,99290.65
2022-12-01T18:01:17.153Z,99291.17
2022-12-01T18:03:45.366Z,99293.23
2022-12-01T18:06:14.650Z,99286.33
2022-12-01T18:08:43.005Z,99293.40
2022-12-01T18:11:12.714Z,99293.05
2022-12-01T18:13:45.374Z,99292.36
2022-12-01T18:16:16.667Z,99289.94
2022-12-01T18:18:44.717Z,99288.04
2022-12-01T18:21:13.794Z,99289.27
2022-12-01T18:23:41.890Z,99294.27
2022-12-01T18:26:15.911Z,99293.07
2022-12-01T18:28:44.591Z,99301.36
2022-12-01T18:31:15.892Z,99295.30
2022-12-01T18:34:05.293Z,99300.84
2022-12-01T18:36:48.742Z,99302.39
2022-12-01T18:39:17.043Z,99303.26
2022-12-01T18:41:45.147Z,99299.63
2022-12-01T18:44:13.352Z,99294.27
2022-12-01T18:46:41.671Z,99291.52
2022-12-01T18:49:10.373Z,99290.83
2022-12-01T18:51:39.282Z,99290.99
2022-12-01T18:54:09.328Z,99294.61
2022-12-01T18:56:37.535Z,99293.41
2022-12-01T18:59:06.685Z,99293.58
2022-12-01T19:01:36.734Z,99290.82
2022-12-01T19:04:06.692Z,99294.43
2022-12-01T19:06:37.977Z,99294.95
2022-12-01T19:09:08.479Z,99291.85
2022-12-01T19:11:37.833Z,99294.27
2022-12-01T19:14:06.301Z,99298.92
2022-12-01T19:16:34.360Z,99298.58
2022-12-01T19:19:03.569Z,99295.13
2022-12-01T19:21:32.219Z,99297.88
2022-12-01T19:24:00.349Z,99300.64
2022-12-01T19:26:28.420Z,99296.67
2022-12-01T19:28:56.513Z,99297.88
2022-12-01T19:31:25.336Z,99297.36
2022-12-01T19:33:55.050Z,99298.40
2022-12-01T19:36:26.907Z,99294.26
2022-12-01T19:39:00.453Z,99294.09
2022-12-01T19:41:29.588Z,99283.03
2022-12-01T19:43:58.689Z,99288.90
2022-12-01T19:46:28.798Z,99287.86
2022-12-01T19:49:02.879Z,99289.94
2022-12-01T19:51:36.714Z,99289.95
2022-12-01T19:54:15.650Z,99283.02
2022-12-01T19:56:44.541Z,99280.09
2022-12-01T19:59:14.519Z,99282.52
2022-12-01T20:01:43.154Z,99278.20
2022-12-01T20:04:11.631Z,99279.76
2022-12-01T20:06:39.539Z,99273.71
2022-12-01T20:09:08.876Z,99274.92
2022-12-01T20:11:37.220Z,99272.15
2022-12-01T20:14:07.836Z,99266.79
2022-12-01T20:16:36.376Z,99272.31
2022-12-01T20:19:05.316Z,99269.20
2022-12-01T20:21:42.459Z,99271.11
2022-12-01T20:24:14.123Z,99274.89
2022-12-01T20:26:45.892Z,99273.18
2022-12-01T20:29:16.959Z,99266.96
2022-12-01T20:31:45.546Z,99270.59
2022-12-01T20:34:17.158Z,99265.92
2022-12-01T20:36:45.409Z,99273.52
2022-12-01T20:39:14.301Z,99271.63
2022-12-01T20:41:43.801Z,99275.09
2022-12-01T20:44:12.368Z,99271.45
2022-12-01T20:46:45.396Z,99269.21
2022-12-01T20:49:16.041Z,99266.28
2022-12-01T20:51:44.392Z,99267.48
2022-12-01T20:54:30.455Z,99271.63
2022-12-01T20:56:58.805Z,99271.65
2022-12-01T20:59:26.967Z,99268.88
2022-12-01T21:01:55.778Z,99269.39
2022-12-01T21:04:24.058Z,99268.02
2022-12-01T21:06:56.021Z,99268.19
2022-12-01T21:09:25.695Z,99269.73
2022-12-01T21:12:13.004Z,99273.19
2022-12-01T21:15:25.553Z,99273.35
2022-12-01T21:18:19.666Z,99270.91
2022-12-01T21:20:50.827Z,99269.01
2022-12-01T21:23:20.036Z,99270.02
2022-12-01T21:25:49.305Z,99267.77
2022-12-01T21:28:22.658Z,99272.08
2022-12-01T21:31:00.265Z,99272.42
2022-12-01T21:33:33.131Z,99275.55
2022-12-01T21:36:22.584Z,99277.62
2022-12-01T21:38:51.488Z,99278.84
2022-12-01T21:41:25.714Z,99282.13
2022-12-01T21:43:56.814Z,99282.48
2022-12-01T21:46:24.778Z,99280.92
2022-12-01T21:48:53.054Z,99280.26
2022-12-01T21:51:24.898Z,99278.36
2022-12-01T21:53:55.802Z,99272.33
2022-12-01T21:56:26.485Z,99273.02
2022-12-01T21:58:58.959Z,99270.23
2022-12-01T22:01:28.311Z,99270.08
2022-12-01T22:04:02.936Z,99268.17
2022-12-01T22:06:42.342Z,99270.23
2022-12-01T22:09:12.981Z,99267.14
2022-12-01T22:11:42.922Z,99267.48
2022-12-01T22:14:20.941Z,99266.10
2022-12-01T22:17:07.285Z,99266.62
2022-12-01T22:19:42.707Z,99266.27
2022-12-01T22:22:21.917Z,99265.56
2022-12-01T22:24:51.562Z,99265.57
2022-12-01T22:27:27.310Z,99265.23
2022-12-01T22:30:07.506Z,99264.02
2022-12-01T22:32:38.440Z,99258.68
2022-12-01T22:35:13.953Z,99256.26
2022-12-01T22:37:50.728Z,99257.48
2022-12-01T22:40:41.454Z,99257.48
2022-12-01T22:43:15.468Z,99253.68
2022-12-01T22:45:46.853Z,99249.70
2022-12-01T22:48:20.980Z,99249.35
2022-12-01T22:50:51.910Z,99246.41
2022-12-01T22:53:29.628Z,99249.70
2022-12-01T22:56:01.124Z,99252.98
2022-12-01T22:58:32.580Z,99246.77
2022-12-01T23:01:25.935Z,99243.98
2022-12-01T23:04:08.558Z,99244.86
2022-12-01T23:06:54.945Z,99247.11
2022-12-01T23:09:26.642Z,99242.95
2022-12-01T23:12:20.165Z,99244.00
2022-12-01T23:14:51.826Z,99240.89
2022-12-01T23:17:29.530Z,99240.52
2022-12-01T23:20:20.669Z,99232.77
2022-12-01T23:22:48.666Z,99236.89
2022-12-01T23:25:19.037Z,99239.84
2022-12-01T23:27:49.825Z,99240.52
2022-12-01T23:30:20.073Z,99237.23
2022-12-01T23:33:15.138Z,99235.67
2022-12-01T23:35:55.358Z,99232.91
2022-12-01T23:38:25.187Z,99236.19
2022-12-01T23:40:57.104Z,99233.08
2022-12-01T23:43:32.954Z,99235.13
2022-12-01T23:46:12.063Z,99230.98
2022-12-01T23:48:45.160Z,99232.02
2022-12-01T23:51:19.738Z,99234.09
2022-12-01T23:53:47.929Z,99231.16
2022-12-01T23:56:20.666Z,99231.51
2022-12-01T23:58:49.338Z,99228.56
